createdAt,value
2017-08-12T00:01:33.296Z,15.00
2017-08-12T00:04:00.797Z,15.00
2017-08-12T00:06:28.307Z,15.00
2017-08-12T00:08:55.797Z,15.00
2017-08-12T00:11:23.315Z,14.90
2017-08-12T00:13:50.805Z,14.80
2017-08-12T00:16:18.346Z,14.80
2017-08-12T00:18:45.832Z,14.70
2017-08-12T00:21:13.341Z,14.80
2017-08-12T00:23:40.856Z,14.80
2017-08-12T00:26:08.361Z,14.90
2017-08-12T00:28:35.855Z,14.90
2017-08-12T00:31:03.364Z,14.90
2017-08-12T00:33:30.851Z,14.90
2017-08-12T00:35:58.423Z,14.90
2017-08-12T00:38:25.908Z,14.90
2017-08-12T00:40:53.404Z,14.90
2017-08-12T00:43:20.924Z,14.90
2017-08-12T00:45:48.422Z,14.90
2017-08-12T00:48:15.936Z,14.90
2017-08-12T00:50:46.460Z,14.80
2017-08-12T00:53:13.981Z,14.80
2017-08-12T00:55:41.491Z,14.80
2017-08-12T00:58:08.996Z,14.70
2017-08-12T01:00:36.488Z,14.70
2017-08-12T01:03:03.990Z,14.80
2017-08-12T01:05:31.485Z,14.70
2017-08-12T01:07:58.996Z,14.70
2017-08-12T01:10:26.483Z,14.70
2017-08-12T01:12:53.993Z,14.70
2017-08-12T01:15:21.488Z,14.70
2017-08-12T01:17:49.004Z,14.70
2017-08-12T01:20:16.504Z,14.70
2017-08-12T01:22:44.011Z,14.60
2017-08-12T01:25:11.499Z,14.60
2017-08-12T01:27:39.070Z,14.60
2017-08-12T01:30:06.548Z,14.50
2017-08-12T01:32:34.064Z,14.60
2017-08-12T01:35:02.548Z,14.60
2017-08-12T01:37:30.051Z,14.50
2017-08-12T01:39:57.531Z,14.60
2017-08-12T01:42:25.025Z,14.60
2017-08-12T01:44:52.528Z,14.70
2017-08-12T01:47:20.031Z,14.70
2017-08-12T01:49:47.539Z,14.70
2017-08-12T01:52:15.031Z,14.70
2017-08-12T01:54:42.535Z,14.60
2017-08-12T01:57:10.019Z,14.50
2017-08-12T01:59:37.540Z,14.50
2017-08-12T02:02:05.032Z,14.50
2017-08-12T02:04:33.306Z,14.30
2017-08-12T02:07:00.798Z,14.30
2017-08-12T02:09:28.299Z,14.30
2017-08-12T02:11:55.779Z,14.40
2017-08-12T02:14:23.292Z,14.30
2017-08-12T02:16:50.791Z,14.50
2017-08-12T02:19:18.308Z,14.40
2017-08-12T02:21:45.804Z,14.40
2017-08-12T02:24:13.314Z,14.60
2017-08-12T02:26:41.573Z,14.60
2017-08-12T02:29:09.083Z,14.50
2017-08-12T02:31:36.573Z,14.50
2017-08-12T02:34:04.084Z,14.50
2017-08-12T02:36:31.585Z,14.50
2017-08-12T02:38:59.092Z,14.60
2017-08-12T02:41:26.584Z,14.60
2017-08-12T02:43:54.072Z,14.50
2017-08-12T02:46:21.597Z,14.40
2017-08-12T02:48:49.097Z,14.50
2017-08-12T02:51:16.607Z,14.60
2017-08-12T02:53:44.100Z,14.60
2017-08-12T02:56:11.609Z,14.60
2017-08-12T02:58:39.098Z,14.70
2017-08-12T03:01:06.608Z,14.70
2017-08-12T03:03:34.095Z,14.60
2017-08-12T03:06:01.600Z,14.50
2017-08-12T03:08:29.082Z,14.40
2017-08-12T03:10:56.596Z,14.30
2017-08-12T03:13:25.089Z,14.30
2017-08-12T03:15:52.589Z,14.30
2017-08-12T03:18:20.084Z,14.30
2017-08-12T03:20:47.589Z,14.20
2017-08-12T03:23:15.067Z,14.30
2017-08-12T03:25:42.572Z,14.20
2017-08-12T03:28:10.061Z,14.20
2017-08-12T03:30:38.336Z,14.20
2017-08-12T03:33:05.836Z,14.20
2017-08-12T03:35:33.343Z,14.30
2017-08-12T03:38:00.827Z,14.30
2017-08-12T03:40:28.340Z,14.30
2017-08-12T03:42:55.828Z,14.30
2017-08-12T03:45:24.089Z,14.40
2017-08-12T03:47:51.595Z,14.30
2017-08-12T03:50:19.251Z,14.40
2017-08-12T03:52:46.755Z,14.50
2017-08-12T03:55:14.244Z,14.40
2017-08-12T03:57:41.748Z,14.30
2017-08-12T04:00:09.247Z,14.30
2017-08-12T04:02:36.753Z,14.20
2017-08-12T04:05:04.239Z,14.20
2017-08-12T04:07:32.514Z,14.10
2017-08-12T04:10:00.788Z,14.10
2017-08-12T04:12:28.303Z,14.00
2017-08-12T04:14:55.787Z,13.90
2017-08-12T04:17:23.300Z,13.90
2017-08-12T04:19:50.794Z,13.90
2017-08-12T04:22:18.305Z,13.90
2017-08-12T04:24:45.791Z,13.90
2017-08-12T04:27:13.288Z,13.90
2017-08-12T04:29:40.767Z,13.90
2017-08-12T04:32:08.271Z,13.90
2017-08-12T04:34:35.786Z,13.80
2017-08-12T04:37:04.055Z,13.90
2017-08-12T04:39:31.559Z,13.80
2017-08-12T04:41:59.050Z,13.90
2017-08-12T04:44:26.559Z,13.90
2017-08-12T04:46:54.049Z,14.00
2017-08-12T04:49:21.594Z,14.00
2017-08-12T04:51:49.079Z,14.00
2017-08-12T04:54:16.581Z,13.90
2017-08-12T04:56:44.064Z,14.00
2017-08-12T04:59:11.568Z,14.00
2017-08-12T05:01:39.053Z,14.00
2017-08-12T05:04:06.558Z,14.00
2017-08-12T05:06:34.044Z,13.90
2017-08-12T05:09:01.548Z,13.90
2017-08-12T05:11:29.028Z,13.80
2017-08-12T05:13:56.544Z,13.90
2017-08-12T05:16:24.039Z,13.90
2017-08-12T05:18:51.544Z,13.90
2017-08-12T05:21:19.031Z,14.00
2017-08-12T05:23:46.532Z,14.00
2017-08-12T05:26:14.024Z,14.10
2017-08-12T05:28:41.531Z,14.10
2017-08-12T05:31:09.012Z,14.10
2017-08-12T05:33:36.515Z,14.20
2017-08-12T05:36:04.763Z,14.30
2017-08-12T05:38:32.271Z,14.30
2017-08-12T05:41:00.767Z,14.30
2017-08-12T05:43:28.253Z,14.30
2017-08-12T05:45:55.747Z,14.20
2017-08-12T05:48:23.232Z,14.00
2017-08-12T05:50:50.748Z,13.90
2017-08-12T05:53:18.235Z,13.80
2017-08-12T05:55:45.737Z,13.80
2017-08-12T05:58:13.235Z,13.80
2017-08-12T06:00:40.734Z,13.70
2017-08-12T06:03:08.216Z,13.80
2017-08-12T06:05:35.722Z,13.80
2017-08-12T06:08:03.215Z,13.90
2017-08-12T06:10:30.730Z,14.00
2017-08-12T06:12:58.224Z,14.00
2017-08-12T06:15:25.725Z,14.00
2017-08-12T06:17:53.207Z,14.10
2017-08-12T06:20:20.713Z,14.20
2017-08-12T06:22:48.205Z,14.20
2017-08-12T06:25:16.482Z,14.30
2017-08-12T06:27:43.983Z,14.30
2017-08-12T06:30:11.496Z,14.30
2017-08-12T06:32:38.993Z,14.40
2017-08-12T06:35:06.509Z,14.40
2017-08-12T06:37:33.996Z,14.40
2017-08-12T06:40:01.524Z,14.40
2017-08-12T06:42:29.016Z,14.40
2017-08-12T06:44:56.505Z,14.40
2017-08-12T06:47:24.772Z,14.50
2017-08-12T06:49:52.255Z,14.50
2017-08-12T06:52:19.764Z,14.60
2017-08-12T06:54:47.269Z,14.60
2017-08-12T06:57:14.789Z,14.60
2017-08-12T06:59:42.271Z,14.70
2017-08-12T07:02:09.788Z,14.80
2017-08-12T07:04:37.284Z,14.80
2017-08-12T07:07:04.801Z,14.90
2017-08-12T07:09:33.072Z,15.00
2017-08-12T07:12:00.581Z,14.90
2017-08-12T07:14:28.068Z,15.00
2017-08-12T07:16:56.340Z,15.10
2017-08-12T07:19:23.833Z,15.00
2017-08-12T07:21:51.681Z,15.20
2017-08-12T07:24:19.179Z,15.10
2017-08-12T07:26:46.685Z,15.20
2017-08-12T07:29:14.171Z,15.30
2017-08-12T07:31:41.679Z,15.30
2017-08-12T07:34:09.169Z,15.40
2017-08-12T07:36:36.676Z,15.40
2017-08-12T07:39:04.940Z,15.40
2017-08-12T07:41:32.460Z,15.40
2017-08-12T07:44:00.711Z,15.50
2017-08-12T07:46:28.196Z,15.40
2017-08-12T07:48:55.712Z,15.50
2017-08-12T07:51:23.205Z,15.50
2017-08-12T07:53:50.716Z,15.60
2017-08-12T07:56:18.274Z,15.60
2017-08-12T07:58:45.844Z,15.70
2017-08-12T08:01:26.215Z,15.70
2017-08-12T08:03:53.735Z,15.80
2017-08-12T08:06:21.235Z,15.90
2017-08-12T08:08:48.768Z,16.10
2017-08-12T08:11:17.026Z,16.70
2017-08-12T08:13:45.299Z,17.00
2017-08-12T08:16:12.784Z,16.90
2017-08-12T08:18:40.288Z,17.10
2017-08-12T08:21:07.857Z,17.10
2017-08-12T08:23:35.356Z,17.10
2017-08-12T08:26:03.608Z,17.00
2017-08-12T08:28:31.109Z,17.00
2017-08-12T08:30:58.591Z,17.00
2017-08-12T08:33:26.861Z,17.00
2017-08-12T08:35:55.776Z,17.00
2017-08-12T08:38:23.280Z,16.90
2017-08-12T08:40:51.531Z,17.20
2017-08-12T08:43:19.037Z,17.10
2017-08-12T08:45:46.520Z,17.20
2017-08-12T08:48:14.796Z,17.30
2017-08-12T08:50:42.282Z,17.30
2017-08-12T08:53:09.779Z,17.30
2017-08-12T08:55:37.280Z,17.30
2017-08-12T08:58:04.760Z,17.30
2017-08-12T09:00:32.273Z,17.30
2017-08-12T09:02:59.752Z,17.30
2017-08-12T09:05:27.244Z,17.30
2017-08-12T09:07:54.724Z,17.20
2017-08-12T09:10:22.987Z,17.10
2017-08-12T09:12:50.479Z,17.10
2017-08-12T09:15:17.980Z,17.10
2017-08-12T09:17:45.464Z,17.10
2017-08-12T09:20:12.970Z,17.00
2017-08-12T09:22:51.669Z,17.00
2017-08-12T09:25:19.522Z,16.90
2017-08-12T09:27:47.028Z,16.90
2017-08-12T09:30:14.744Z,16.90
2017-08-12T09:32:42.828Z,16.90
2017-08-12T09:35:10.339Z,16.90
2017-08-12T09:37:37.823Z,16.90
2017-08-12T09:40:05.324Z,16.90
2017-08-12T09:42:32.807Z,16.80
2017-08-12T09:45:00.308Z,16.80
2017-08-12T09:47:27.814Z,16.80
2017-08-12T09:49:55.300Z,16.80
2017-08-12T09:52:22.795Z,16.80
2017-08-12T09:54:50.286Z,16.80
2017-08-12T10:00:10.675Z,16.70
2017-08-12T10:03:00.143Z,16.70
2017-08-12T10:05:28.675Z,16.70
2017-08-12T10:07:56.810Z,16.70
2017-08-12T10:10:35.235Z,16.70
2017-08-12T10:13:02.725Z,16.80
2017-08-12T10:15:31.004Z,16.80
2017-08-12T10:17:58.504Z,16.80
2017-08-12T10:20:26.009Z,16.90
2017-08-12T10:22:53.531Z,16.90
2017-08-12T10:25:21.010Z,16.90
2017-08-12T10:27:48.527Z,16.90
2017-08-12T10:30:16.008Z,16.80
2017-08-12T10:32:43.508Z,16.80
2017-08-12T10:35:14.404Z,16.80
2017-08-12T10:37:41.882Z,16.80
2017-08-12T10:40:09.380Z,16.80
2017-08-12T10:42:36.916Z,16.80
2017-08-12T10:45:04.422Z,16.70
2017-08-12T10:47:31.907Z,16.70
2017-08-12T10:49:59.399Z,16.70
2017-08-12T10:52:26.888Z,16.70
2017-08-12T10:54:54.393Z,16.70
2017-08-12T10:57:21.878Z,16.70
2017-08-12T10:59:49.435Z,16.80
2017-08-12T11:02:16.924Z,16.90
2017-08-12T11:04:44.437Z,16.90
2017-08-12T11:07:11.918Z,17.00
2017-08-12T11:09:39.433Z,17.10
2017-08-12T11:12:06.913Z,17.20
2017-08-12T11:14:34.399Z,17.20
2017-08-12T11:17:01.913Z,17.20
2017-08-12T11:19:29.404Z,17.20
2017-08-12T11:21:56.912Z,17.30
2017-08-12T11:24:25.163Z,17.40
2017-08-12T11:26:52.660Z,17.30
2017-08-12T11:29:20.138Z,17.40
2017-08-12T11:31:47.940Z,17.40
2017-08-12T11:34:15.429Z,17.30
2017-08-12T11:36:42.929Z,17.30
2017-08-12T11:39:10.407Z,17.30
2017-08-12T11:41:37.935Z,17.30
2017-08-12T11:44:05.423Z,17.40
2017-08-12T11:46:33.660Z,17.50
2017-08-12T11:49:01.157Z,17.40
2017-08-12T11:51:28.640Z,17.50
2017-08-12T11:53:56.144Z,17.40
2017-08-12T11:56:23.633Z,17.40
2017-08-12T11:58:51.138Z,17.40
2017-08-12T12:01:19.227Z,17.40
2017-08-12T12:04:07.727Z,17.40
2017-08-12T12:06:35.215Z,17.40
2017-08-12T12:09:03.482Z,17.50
2017-08-12T12:11:30.964Z,17.40
2017-08-12T12:13:58.464Z,17.50
2017-08-12T12:16:26.708Z,17.50
2017-08-12T12:18:54.214Z,17.40
2017-08-12T12:21:21.720Z,17.50
2017-08-12T12:23:49.239Z,17.60
2017-08-12T12:26:16.719Z,17.60
2017-08-12T12:28:44.236Z,17.60
2017-08-12T12:31:12.480Z,17.60
2017-08-12T12:33:39.966Z,17.50
2017-08-12T12:36:07.469Z,17.60
2017-08-12T12:38:34.947Z,17.50
2017-08-12T12:41:02.441Z,17.40
2017-08-12T12:43:29.922Z,17.40
2017-08-12T12:45:57.426Z,17.50
2017-08-12T12:48:24.908Z,17.60
2017-08-12T12:50:52.448Z,17.60
2017-08-12T12:53:19.932Z,17.70
2017-08-12T12:55:47.447Z,17.70
2017-08-12T12:58:14.926Z,17.70
2017-08-12T13:00:42.432Z,17.70
2017-08-12T13:03:09.926Z,17.70
2017-08-12T13:05:37.432Z,17.50
2017-08-12T13:08:04.911Z,17.40
2017-08-12T13:10:32.413Z,17.40
2017-08-12T13:12:59.900Z,17.40
2017-08-12T13:15:27.396Z,17.40
2017-08-12T13:17:54.881Z,17.40
2017-08-12T13:24:29.765Z,17.40
2017-08-12T13:26:57.267Z,17.40
2017-08-12T13:29:25.565Z,17.30
2017-08-12T13:31:53.112Z,17.20
2017-08-12T13:34:20.629Z,17.40
2017-08-12T13:36:48.160Z,17.40
2017-08-12T13:39:15.697Z,17.30
2017-08-12T13:41:43.220Z,17.30
2017-08-12T13:44:10.696Z,17.30
2017-08-12T13:46:38.191Z,17.30
2017-08-12T13:49:05.667Z,17.10
2017-08-12T13:51:33.167Z,17.00
2017-08-12T13:54:00.641Z,17.00
2017-08-12T13:56:28.175Z,17.00
2017-08-12T13:58:55.650Z,16.90
2017-08-12T14:01:23.184Z,16.90
2017-08-12T14:03:50.688Z,17.00
2017-08-12T14:06:18.209Z,16.90
2017-08-12T14:08:45.700Z,17.00
2017-08-12T14:11:13.953Z,17.00
2017-08-12T14:13:41.464Z,16.90
2017-08-12T14:16:08.951Z,17.00
2017-08-12T14:21:28.419Z,17.10
2017-08-12T14:23:55.932Z,17.10
2017-08-12T14:26:23.434Z,17.10
2017-08-12T14:28:50.943Z,16.90
2017-08-12T14:31:18.483Z,16.90
2017-08-12T14:33:45.983Z,16.90
2017-08-12T14:36:14.259Z,16.80
2017-08-12T14:38:41.762Z,16.80
2017-08-12T14:41:09.244Z,16.60
2017-08-12T14:43:37.508Z,16.60
2017-08-12T14:46:05.758Z,16.70
2017-08-12T14:48:33.261Z,16.60
2017-08-12T14:51:00.749Z,16.60
2017-08-12T14:53:29.019Z,16.70
2017-08-12T14:55:57.360Z,16.70
2017-08-12T14:58:24.860Z,16.80
2017-08-12T15:00:52.343Z,16.80
2017-08-12T15:03:19.856Z,16.80
2017-08-12T15:05:47.333Z,16.70
2017-08-12T15:08:14.831Z,16.70
2017-08-12T15:10:42.322Z,16.70
2017-08-12T15:13:10.605Z,16.70
2017-08-12T15:15:38.297Z,16.60
2017-08-12T15:18:05.857Z,16.70
2017-08-12T15:20:33.412Z,16.80
2017-08-12T15:23:00.899Z,16.70
2017-08-12T15:25:28.540Z,16.70
2017-08-12T15:27:56.034Z,16.80
2017-08-12T15:30:23.641Z,16.80
2017-08-12T15:32:51.133Z,16.80
2017-08-12T15:35:19.409Z,16.90
2017-08-12T15:37:46.900Z,16.80
2017-08-12T15:40:14.408Z,16.80
2017-08-12T15:42:41.907Z,16.90
2017-08-12T15:45:09.429Z,16.90
2017-08-12T15:47:36.907Z,16.90
2017-08-12T15:50:05.207Z,16.90
2017-08-12T15:52:32.709Z,16.90
2017-08-12T15:55:00.203Z,17.00
2017-08-12T15:57:27.680Z,16.90
2017-08-12T15:59:55.203Z,16.90
2017-08-12T16:02:22.680Z,16.90
2017-08-12T16:04:50.956Z,16.90
2017-08-12T16:07:18.443Z,16.90
2017-08-12T16:09:45.943Z,16.90
2017-08-12T16:12:13.441Z,16.90
2017-08-12T16:14:40.961Z,16.90
2017-08-12T16:17:08.486Z,16.90
2017-08-12T16:19:36.930Z,16.90
2017-08-12T16:22:04.464Z,16.90
2017-08-12T16:24:31.945Z,17.00
2017-08-12T16:26:59.464Z,17.00
2017-08-12T16:29:26.956Z,16.90
2017-08-12T16:31:54.469Z,16.90
2017-08-12T16:34:21.955Z,16.90
2017-08-12T16:36:49.454Z,16.90
2017-08-12T16:39:16.939Z,16.90
2017-08-12T16:41:44.453Z,16.90
2017-08-12T16:44:11.943Z,16.90
2017-08-12T16:46:39.451Z,16.90
2017-08-12T16:49:06.927Z,16.90
2017-08-12T16:51:34.432Z,16.90
2017-08-12T16:54:01.904Z,16.90
2017-08-12T16:56:29.414Z,16.90
2017-08-12T16:58:56.900Z,16.90
2017-08-12T17:01:25.171Z,16.60
2017-08-12T17:03:52.658Z,16.60
2017-08-12T17:06:20.173Z,16.60
2017-08-12T17:08:47.643Z,16.60
2017-08-12T17:11:15.135Z,16.50
2017-08-12T17:13:43.376Z,16.50
2017-08-12T17:16:10.903Z,16.50
2017-08-12T17:18:38.379Z,16.50
2017-08-12T17:21:06.624Z,16.40
2017-08-12T17:23:34.124Z,16.40
2017-08-12T17:26:01.605Z,16.40
2017-08-12T17:28:29.116Z,16.40
2017-08-12T17:30:56.603Z,16.40
2017-08-12T17:33:24.114Z,16.30
2017-08-12T17:35:51.596Z,16.20
2017-08-12T17:38:19.107Z,16.30
2017-08-12T17:40:46.592Z,16.20
2017-08-12T17:43:14.104Z,16.20
2017-08-12T17:45:41.583Z,16.20
2017-08-12T17:48:09.089Z,16.20
2017-08-12T17:50:36.569Z,16.20
2017-08-12T17:53:04.072Z,16.10
2017-08-12T17:55:31.552Z,16.20
2017-08-12T17:58:13.700Z,16.10
2017-08-12T18:00:41.186Z,16.10
2017-08-12T18:03:08.707Z,16.10
2017-08-12T18:05:36.975Z,15.90
2017-08-12T18:08:04.466Z,15.90
2017-08-12T18:10:31.987Z,15.90
2017-08-12T18:12:59.472Z,16.00
2017-08-12T18:15:26.988Z,16.00
2017-08-12T18:17:54.474Z,15.90
2017-08-12T18:20:22.721Z,16.00
2017-08-12T18:22:50.252Z,16.00
2017-08-12T18:25:17.762Z,16.00
2017-08-12T18:27:45.251Z,16.00
2017-08-12T18:30:12.758Z,16.00
2017-08-12T18:32:40.235Z,16.10
2017-08-12T18:35:07.743Z,16.00
2017-08-12T18:37:35.224Z,16.00
2017-08-12T18:40:02.730Z,16.10
2017-08-12T18:42:30.219Z,16.10
2017-08-12T18:44:58.485Z,16.10
2017-08-12T18:47:25.972Z,16.10
2017-08-12T18:49:53.467Z,16.20
2017-08-12T18:52:20.954Z,16.20
2017-08-12T18:54:48.457Z,16.10
2017-08-12T18:57:15.935Z,16.10
2017-08-12T18:59:43.436Z,16.10
2017-08-12T19:02:10.912Z,16.20
2017-08-12T19:04:38.409Z,16.20
2017-08-12T19:07:05.903Z,16.20
2017-08-12T19:09:33.404Z,16.30
2017-08-12T19:12:01.644Z,16.30
2017-08-12T19:14:29.139Z,16.20
2017-08-12T19:16:56.620Z,16.30
2017-08-12T19:19:24.129Z,16.30
2017-08-12T19:21:51.620Z,16.30
2017-08-12T19:24:19.918Z,16.30
2017-08-12T19:26:47.400Z,16.30
2017-08-12T19:29:14.884Z,16.30
2017-08-12T19:31:42.388Z,16.30
2017-08-12T19:34:09.876Z,16.30
2017-08-12T19:36:37.380Z,16.20
2017-08-12T19:39:04.864Z,16.20
2017-08-12T19:41:32.394Z,16.20
2017-08-12T19:43:59.877Z,16.20
2017-08-12T19:46:27.380Z,16.20
2017-08-12T19:48:54.857Z,16.20
2017-08-12T19:51:22.372Z,16.20
2017-08-12T19:53:49.867Z,16.20
2017-08-12T19:56:17.377Z,16.20
2017-08-12T19:58:44.863Z,16.20
2017-08-12T20:01:12.363Z,16.30
2017-08-12T20:03:39.839Z,16.30
2017-08-12T20:06:07.344Z,16.30
2017-08-12T20:08:34.842Z,16.20
2017-08-12T20:11:02.336Z,16.20
2017-08-12T20:13:29.815Z,16.30
2017-08-12T20:15:57.319Z,16.30
2017-08-12T20:18:24.804Z,16.30
2017-08-12T20:20:52.324Z,16.30
2017-08-12T20:23:19.815Z,16.20
2017-08-12T20:25:47.344Z,16.30
2017-08-12T20:28:14.834Z,16.20
2017-08-12T20:30:42.330Z,16.20
2017-08-12T20:33:09.844Z,16.20
2017-08-12T20:35:37.331Z,16.20
2017-08-12T20:38:04.837Z,16.20
2017-08-12T20:40:32.312Z,16.20
2017-08-12T20:42:59.820Z,16.20
2017-08-12T20:45:27.295Z,16.20
2017-08-12T20:47:54.798Z,16.30
2017-08-12T20:50:22.284Z,16.30
2017-08-12T20:52:49.799Z,16.30
2017-08-12T20:55:17.304Z,16.30
2017-08-12T20:57:44.804Z,16.30
2017-08-12T21:00:12.289Z,16.30
2017-08-12T21:02:39.796Z,16.40
2017-08-12T21:05:07.275Z,16.40
2017-08-12T21:07:34.789Z,16.40
2017-08-12T21:10:02.275Z,16.40
2017-08-12T21:12:29.778Z,16.30
2017-08-12T21:14:57.256Z,16.40
2017-08-12T21:17:24.752Z,16.40
2017-08-12T21:19:52.231Z,16.30
2017-08-12T21:22:19.752Z,16.30
2017-08-12T21:24:47.240Z,16.30
2017-08-12T21:27:14.728Z,16.30
2017-08-12T21:29:42.235Z,16.30
2017-08-12T21:32:09.725Z,16.40
2017-08-12T21:34:37.224Z,16.40
2017-08-12T21:37:04.705Z,16.30
2017-08-12T21:39:32.216Z,16.30
2017-08-12T21:41:59.717Z,16.40
2017-08-12T21:44:27.227Z,16.50
2017-08-12T21:46:54.712Z,16.50
2017-08-12T21:49:22.218Z,16.40
2017-08-12T21:51:49.696Z,16.40
2017-08-12T21:54:17.204Z,16.40
2017-08-12T21:56:44.679Z,16.40
2017-08-12T21:59:12.190Z,16.50
2017-08-12T22:01:39.677Z,16.40
2017-08-12T22:04:07.198Z,16.40
2017-08-12T22:06:34.683Z,16.40
2017-08-12T22:09:02.196Z,16.50
2017-08-12T22:11:29.672Z,16.40
2017-08-12T22:13:57.171Z,16.40
2017-08-12T22:16:24.656Z,16.40
2017-08-12T22:18:52.927Z,16.40
2017-08-12T22:21:20.422Z,16.30
2017-08-12T22:23:47.944Z,16.30
2017-08-12T22:26:15.427Z,16.40
2017-08-12T22:28:42.917Z,16.30
2017-08-12T22:31:10.425Z,16.30
2017-08-12T22:33:38.680Z,16.30
2017-08-12T22:36:06.188Z,16.30
2017-08-12T22:38:33.667Z,16.40
2017-08-12T22:41:01.172Z,16.30
2017-08-12T22:43:28.648Z,16.40
2017-08-12T22:45:57.796Z,16.30
2017-08-12T22:48:26.129Z,16.40
2017-08-12T22:50:53.648Z,16.30
2017-08-12T22:53:21.136Z,16.40
2017-08-12T22:55:48.657Z,16.40
2017-08-12T22:58:16.144Z,16.30
2017-08-12T23:00:43.653Z,16.40
2017-08-12T23:03:11.137Z,16.40
2017-08-12T23:05:39.409Z,16.40
2017-08-12T23:08:06.886Z,16.30
2017-08-12T23:10:34.391Z,16.40
2017-08-12T23:13:01.884Z,16.40
2017-08-12T23:15:29.391Z,16.40
2017-08-12T23:17:56.883Z,16.40
2017-08-12T23:20:24.388Z,16.50
2017-08-12T23:22:51.875Z,16.40
2017-08-12T23:25:19.380Z,16.40
2017-08-12T23:27:46.893Z,16.40
2017-08-12T23:30:14.383Z,16.40
2017-08-12T23:32:41.892Z,16.50
2017-08-12T23:35:09.383Z,16.40
2017-08-12T23:37:36.884Z,16.40
2017-08-12T23:40:04.373Z,16.40
2017-08-12T23:42:31.880Z,16.40
2017-08-12T23:44:59.365Z,16.50
2017-08-12T23:47:26.872Z,16.50
2017-08-12T23:49:54.359Z,16.40
2017-08-12T23:52:21.874Z,16.40
2017-08-12T23:54:49.361Z,16.40
2017-08-12T23:57:16.877Z,16.40
2017-08-12T23:59:44.355Z,16.40
